Skyros current weather conditions

sailwx.info

Last reported at 2015-Apr-08 22:19 UTC.
Time now 2015-Apr-18 08:50 UTC

Location: N 38°58' E 024°29'.
View on Google Maps.

See reports from other nearby stations

  
Tides and Currents Weather Stations Pressure Air Temp Water Temp Dewpoint Dewpoint Depression Visibility Wind Speed Wind Dir Waves Ship Positions
date/time (UTC)wind fromknots sea level pressurealtimeterstation pressurevisibilityair tempwater tempwave heightnotes
2015-Apr-18 06:50 5.420.0
2015-Apr-18 05:50 5.420.0
2015-Apr-18 04:50 210 8 5.417.0
2015-Apr-18 03:50 220 10 17.0
2015-Apr-18 02:50 230 10 17.0
2015-Apr-17 17:50 170 13 18.0
2015-Apr-17 16:50 170 16 19.0
2015-Apr-17 15:50 160 16 21.0
2015-Apr-17 14:50 160 15 22.0
2015-Apr-17 13:50 170 13 24.0
2015-Apr-17 12:20 170 9 24.0
2015-Apr-17 11:50 210 7 24.0
2015-Apr-17 10:50 080 6 23.0
2015-Apr-17 09:50 060 4 23.0
2015-Apr-17 08:50 210 5 23.0
2015-Apr-17 07:50 220 5 22.0
2015-Apr-17 06:50 210 4 22.0
2015-Apr-17 05:50 19.0
2015-Apr-17 03:50 13.0
2015-Apr-16 19:50 170 14 gusting 24 16.0
2015-Apr-16 18:50 170 13 16.0
2015-Apr-16 17:50 170 13 16.0
2015-Apr-16 16:50 170 10 17.0
2015-Apr-16 15:50 160 7 19.0
2015-Apr-16 14:50 20.0
2015-Apr-16 13:50 360 6 19.0
2015-Apr-16 12:50 060 5 20.0
2015-Apr-16 11:50 020 6 18.0
2015-Apr-16 10:50 070 8 18.0
2015-Apr-16 09:50 030 5 18.0
2015-Apr-16 08:50 030 4 18.0